Time;durP1;ratioP1;P1;durP2;ratioP2;P2;SDS_P1;SDS_P2;PMS_P1;PMS_P2;Temp;Humidity;BMP_temperature;BMP_pressure;BME280_temperature;BME280_humidity;BME280_pressure;Samples;Min_cycle;Max_cycle;Signal;HPM_P1;HPM_P2
2021/04/15 00:00:50;;;;;;;4.88;1.30;;;30.40;50.30;;;;;;5089600;28;20434;-78
2021/04/15 00:03:27;;;;;;;8.25;1.40;;;30.30;49.80;;;;;;5089836;28;20373;-78
2021/04/15 00:06:00;;;;;;;6.07;1.55;;;30.30;48.20;;;;;;5090248;28;20380;-78
2021/04/15 00:08:27;;;;;;;5.20;1.42;;;30.20;49.30;;;;;;5090242;28;20514;-77
2021/04/15 00:10:58;;;;;;;4.90;1.27;;;29.80;44.90;;;;;;5090294;28;20384;-78
2021/04/15 00:13:32;;;;;;;8.68;1.30;;;29.30;46.30;;;;;;5089097;28;20393;-78
2021/04/15 00:16:00;;;;;;;6.90;1.50;;;28.80;46.00;;;;;;5088465;28;20416;-78
2021/04/15 00:18:28;;;;;;;8.80;1.40;;;29.00;47.10;;;;;;5083188;28;20391;-77
2021/04/15 00:20:55;;;;;;;5.32;1.55;;;28.10;45.80;;;;;;5089487;28;20388;-78
2021/04/15 00:23:22;;;;;;;5.88;1.20;;;27.70;48.70;;;;;;5087569;28;20853;-79
2021/04/15 00:25:50;;;;;;;4.95;1.20;;;27.70;47.90;;;;;;5089034;28;20453;-78
2021/04/15 00:28:18;;;;;;;5.32;1.40;;;27.90;52.50;;;;;;5084735;28;20387;-78
2021/04/15 00:30:45;;;;;;;5.20;1.42;;;27.80;50.00;;;;;;5089717;28;20584;-78
2021/04/15 00:33:12;;;;;;;4.85;1.50;;;28.00;49.10;;;;;;5089331;28;20372;-79
2021/04/15 00:35:40;;;;;;;7.13;1.60;;;27.60;48.70;;;;;;5088760;28;20412;-78
2021/04/15 00:38:08;;;;;;;4.22;1.40;;;27.70;50.70;;;;;;5090119;28;20388;-77
2021/04/15 00:40:37;;;;;;;3.95;1.40;;;27.80;48.20;;;;;;5087569;28;20392;-78
2021/04/15 00:43:05;;;;;;;7.00;1.67;;;28.30;47.70;;;;;;5084752;28;20383;-78
2021/04/15 00:45:35;;;;;;;5.07;1.50;;;28.40;51.70;;;;;;5089278;28;20449;-78
2021/04/15 00:48:29;;;;;;;3.50;1.23;;;28.10;47.80;;;;;;5087762;28;20388;-80
2021/04/15 00:51:19;;;;;;;6.07;1.90;;;28.20;48.00;;;;;;5088824;28;20388;-78
2021/04/15 00:53:50;;;;;;;5.97;1.73;;;27.80;48.30;;;;;;5088919;28;20918;-79
2021/04/15 00:56:20;;;;;;;5.60;1.50;;;27.60;48.40;;;;;;5088589;28;20507;-79
2021/04/15 00:58:48;;;;;;;3.50;1.50;;;27.40;48.60;;;;;;5089430;28;20387;-79
2021/04/15 01:01:15;;;;;;;4.82;1.58;;;27.50;50.10;;;;;;5091737;28;20395;-78
2021/04/15 01:03:42;;;;;;;15.30;1.63;;;27.60;50.00;;;;;;5087869;28;20372;-79
2021/04/15 01:06:10;;;;;;;5.85;1.40;;;27.00;48.80;;;;;;5088686;28;20391;-79
2021/04/15 01:08:37;;;;;;;8.60;1.60;;;25.70;50.90;;;;;;5088995;28;20377;-79
2021/04/15 01:11:54;;;;;;;9.98;1.70;;;25.00;55.40;;;;;;5087762;28;20804;-79
2021/04/15 01:14:42;;;;;;;6.77;1.60;;;24.30;57.20;;;;;;5085513;28;20445;-78
2021/04/15 01:17:24;;;;;;;4.53;1.67;;;23.60;60.60;;;;;;5088265;28;20475;-78
2021/04/15 01:20:28;;;;;;;3.95;1.13;;;23.30;57.00;;;;;;5089287;28;20399;-78
2021/04/15 01:23:16;;;;;;;4.43;1.13;;;22.80;57.60;;;;;;5087611;28;20403;-78
2021/04/15 01:25:55;;;;;;;6.87;1.37;;;22.50;59.30;;;;;;5086963;28;20732;-78
2021/04/15 01:28:22;;;;;;;4.90;1.30;;;22.40;59.20;;;;;;5087659;28;20459;-77
2021/04/15 01:31:04;;;;;;;3.77;1.20;;;22.30;60.90;;;;;;5087576;28;20375;-78
2021/04/15 01:33:41;;;;;;;6.20;1.35;;;22.20;60.70;;;;;;5087936;28;20412;-80
2021/04/15 01:36:44;;;;;;;4.70;1.37;;;22.20;60.30;;;;;;5084586;28;20420;-78
2021/04/15 01:39:43;;;;;;;4.85;1.50;;;22.10;61.80;;;;;;5086408;28;20471;-78
2021/04/15 01:42:16;;;;;;;7.78;1.40;;;22.00;59.20;;;;;;5082709;28;20402;-78
2021/04/15 01:44:52;;;;;;;7.78;1.30;;;22.00;60.70;;;;;;5075348;28;21722;-78
2021/04/15 01:47:26;;;;;;;5.47;1.30;;;21.90;60.10;;;;;;5084289;28;20868;-78
2021/04/15 01:50:00;;;;;;;4.38;1.10;;;21.80;60.90;;;;;;5084657;28;20388;-79
2021/04/15 01:52:30;;;;;;;5.40;1.30;;;21.80;58.90;;;;;;5085634;28;20404;-79
2021/04/15 01:55:05;;;;;;;4.75;1.33;;;21.80;60.50;;;;;;5079006;28;20407;-79
2021/04/15 01:57:56;;;;;;;7.50;1.30;;;21.90;58.60;;;;;;5072928;28;20389;-78
2021/04/15 02:00:27;;;;;;;6.10;1.42;;;21.90;59.30;;;;;;5085187;28;20396;-79
2021/04/15 02:03:12;;;;;;;4.55;1.30;;;21.90;58.60;;;;;;5087279;28;20384;-79
2021/04/15 02:05:41;;;;;;;7.18;1.40;;;21.90;61.20;;;;;;5077232;28;20380;-78
2021/04/15 02:08:13;;;;;;;6.30;1.13;;;21.90;62.10;;;;;;5085874;28;20403;-78
2021/04/15 02:10:56;;;;;;;4.32;1.15;;;22.00;60.90;;;;;;5079080;28;20388;-79
2021/04/15 02:13:26;;;;;;;4.35;1.38;;;22.00;58.20;;;;;;5084768;28;20881;-80
2021/04/15 02:16:04;;;;;;;4.45;0.90;;;22.00;58.80;;;;;;5083269;28;20405;-78
2021/04/15 02:18:40;;;;;;;6.43;1.10;;;22.00;60.00;;;;;;5069104;28;20515;-80
2021/04/15 02:21:34;;;;;;;4.53;0.90;;;22.20;60.00;;;;;;5083283;28;20473;-80
2021/04/15 02:24:45;;;;;;;6.03;1.10;;;22.30;59.10;;;;;;5073733;28;20917;-79
2021/04/15 02:27:38;;;;;;;3.45;0.98;;;22.40;59.70;;;;;;4997822;28;20453;-77
2021/04/15 02:30:21;;;;;;;3.88;1.00;;;22.50;59.70;;;;;;5082945;28;20387;-79
2021/04/15 02:33:13;;;;;;;4.38;1.02;;;22.50;58.50;;;;;;5086397;28;20711;-78
2021/04/15 02:35:47;;;;;;;4.45;1.27;;;22.50;57.20;;;;;;5080988;28;20472;-78
2021/04/15 02:38:23;;;;;;;7.55;1.23;;;22.50;58.00;;;;;;5073353;28;20760;-79
2021/04/15 02:41:01;;;;;;;5.65;1.00;;;22.60;59.40;;;;;;5088537;28;20785;-78
2021/04/15 02:43:42;;;;;;;3.83;1.30;;;22.60;59.20;;;;;;5088536;28;20417;-78
2021/04/15 02:46:20;;;;;;;5.50;1.50;;;22.70;59.90;;;;;;5083750;28;20390;-79
2021/04/15 02:48:51;;;;;;;6.43;1.30;;;22.80;60.00;;;;;;5082821;28;20423;-79
2021/04/15 02:51:37;;;;;;;3.15;1.20;;;22.80;59.50;;;;;;5087793;28;20467;-79
2021/04/15 02:54:18;;;;;;;4.72;1.48;;;22.90;58.50;;;;;;5086700;28;20388;-78
2021/04/15 02:57:17;;;;;;;5.20;1.55;;;22.90;58.60;;;;;;5081998;28;20896;-78
2021/04/15 02:59:49;;;;;;;5.72;1.40;;;23.00;57.60;;;;;;5075114;28;20396;-78
2021/04/15 03:02:29;;;;;;;8.48;1.73;;;22.90;58.00;;;;;;5087260;28;20397;-78
2021/04/15 03:05:01;;;;;;;7.95;1.55;;;23.00;57.60;;;;;;5090138;28;20832;-79
2021/04/15 03:07:29;;;;;;;8.63;1.50;;;22.90;57.10;;;;;;5086105;28;20442;-79
2021/04/15 03:09:59;;;;;;;4.60;1.67;;;22.90;58.10;;;;;;5083528;28;20469;-78
2021/04/15 03:12:43;;;;;;;4.97;1.40;;;23.00;59.70;;;;;;5083800;28;20406;-79
2021/04/15 03:15:17;;;;;;;7.22;1.35;;;23.00;59.80;;;;;;5078063;28;20872;-79
2021/04/15 03:17:48;;;;;;;6.43;1.70;;;23.10;59.10;;;;;;5091348;28;20424;-79
2021/04/15 03:20:35;;;;;;;5.65;1.38;;;23.30;58.20;;;;;;5097482;28;20379;-80
2021/04/15 03:23:29;;;;;;;4.03;1.20;;;23.30;60.90;;;;;;5096111;28;20390;-80
2021/04/15 03:25:59;;;;;;;4.93;1.10;;;23.30;61.00;;;;;;5074466;28;20368;-78
2021/04/15 03:28:43;;;;;;;4.03;1.20;;;23.20;57.30;;;;;;5083628;28;20389;-78
2021/04/15 03:31:22;;;;;;;3.90;1.20;;;23.20;59.60;;;;;;5086653;28;20491;-78
2021/04/15 03:34:27;;;;;;;6.82;1.40;;;23.20;59.80;;;;;;5078902;28;20419;-78
2021/04/15 03:36:57;;;;;;;4.00;1.27;;;23.30;60.10;;;;;;5086974;28;20452;-78
2021/04/15 03:39:35;;;;;;;5.60;1.43;;;23.20;59.10;;;;;;5079580;28;20396;-78
2021/04/15 03:42:30;;;;;;;5.05;1.40;;;23.20;59.60;;;;;;5079698;28;20396;-78
2021/04/15 03:45:04;;;;;;;5.65;1.35;;;23.10;58.10;;;;;;5075079;28;20432;-78
2021/04/15 03:47:37;;;;;;;3.60;1.30;;;23.10;60.30;;;;;;5080965;28;20739;-78
2021/04/15 03:50:11;;;;;;;6.63;1.20;;;23.00;60.30;;;;;;5083249;28;20455;-79
2021/04/15 03:52:43;;;;;;;4.38;1.30;;;23.00;60.10;;;;;;5078992;28;20401;-78
2021/04/15 03:55:30;;;;;;;4.35;1.17;;;23.00;60.40;;;;;;5085207;28;20883;-78
2021/04/15 03:58:08;;;;;;;4.88;1.10;;;23.00;59.40;;;;;;5080009;28;20456;-78
2021/04/15 04:00:44;;;;;;;5.38;1.20;;;23.00;60.20;;;;;;5084754;28;20371;-79
2021/04/15 04:03:15;;;;;;;4.80;1.40;;;23.20;60.90;;;;;;5076983;28;20464;-79
2021/04/15 04:05:49;;;;;;;6.80;1.48;;;23.10;59.60;;;;;;5089957;28;20388;-78
2021/04/15 04:08:24;;;;;;;4.22;1.08;;;23.10;61.10;;;;;;5084300;28;20394;-78
2021/04/15 04:10:54;;;;;;;4.85;1.02;;;23.10;60.30;;;;;;5070885;28;20966;-78
2021/04/15 04:13:41;;;;;;;4.65;1.17;;;23.10;59.70;;;;;;5077292;28;20404;-78
2021/04/15 04:16:23;;;;;;;6.65;1.10;;;23.10;60.00;;;;;;5089418;28;20438;-79
2021/04/15 04:19:20;;;;;;;3.55;1.15;;;23.00;59.90;;;;;;5086467;28;20395;-77
2021/04/15 04:22:22;;;;;;;7.25;1.15;;;23.00;59.20;;;;;;5077551;28;20816;-78
2021/04/15 04:25:13;;;;;;;5.25;0.95;;;23.00;58.50;;;;;;5077384;28;20429;-78
2021/04/15 04:28:03;;;;;;;5.55;1.20;;;23.00;58.90;;;;;;5072445;28;20452;-77
2021/04/15 04:31:20;;;;;;;5.38;1.00;;;22.80;59.20;;;;;;5060436;28;20398;-77
2021/04/15 04:33:51;;;;;;;20.13;2.35;;;22.80;59.80;;;;;;5072833;28;20432;-77
2021/04/15 04:36:22;;;;;;;36.20;3.42;;;22.80;60.70;;;;;;5084613;28;20495;-78
2021/04/15 04:38:50;;;;;;;29.23;4.07;;;22.80;59.80;;;;;;5075193;28;20495;-78
2021/04/15 04:41:39;;;;;;;11.50;1.80;;;22.90;59.30;;;;;;5068175;28;20394;-78
2021/04/15 04:44:14;;;;;;;12.07;2.10;;;22.90;59.80;;;;;;5083546;28;20747;-78
2021/04/15 04:46:57;;;;;;;4.70;1.00;;;22.90;59.40;;;;;;5084437;28;20430;-78
2021/04/15 04:49:37;;;;;;;4.75;1.17;;;22.90;59.50;;;;;;5080500;28;20429;-78
2021/04/15 04:52:19;;;;;;;7.53;1.20;;;22.90;58.40;;;;;;5087182;28;20396;-77
2021/04/15 04:54:46;;;;;;;6.63;1.48;;;22.80;60.00;;;;;;5079291;28;20453;-78
2021/04/15 04:57:40;;;;;;;3.25;1.13;;;22.80;59.20;;;;;;5078411;28;20441;-78
2021/04/15 05:00:18;;;;;;;6.53;1.20;;;22.80;59.60;;;;;;5084024;28;20423;-77
2021/04/15 05:02:49;;;;;;;2.70;0.90;;;22.90;58.90;;;;;;5075299;28;20750;-78
2021/04/15 05:05:27;;;;;;;3.97;1.10;;;22.90;56.60;;;;;;5079489;28;20408;-78
2021/04/15 05:07:59;;;;;;;5.40;1.00;;;22.90;58.00;;;;;;5080490;28;20448;-78
2021/04/15 05:10:29;;;;;;;7.65;1.27;;;22.80;57.60;;;;;;5086931;28;20441;-80
2021/04/15 05:13:24;;;;;;;3.10;1.02;;;22.80;57.90;;;;;;5084356;28;20473;-78
2021/04/15 05:15:53;;;;;;;4.97;1.27;;;22.70;59.00;;;;;;5069833;28;20412;-78
2021/04/15 05:18:23;;;;;;;4.38;1.20;;;22.70;59.50;;;;;;5080627;28;20957;-78
2021/04/15 05:20:56;;;;;;;4.32;0.90;;;22.70;59.30;;;;;;5073055;28;20473;-78
2021/04/15 05:23:24;;;;;;;3.10;0.90;;;22.60;58.00;;;;;;5083886;28;20384;-79
2021/04/15 05:26:25;;;;;;;4.43;1.00;;;22.60;59.20;;;;;;5089721;28;20895;-79
2021/04/15 05:28:57;;;;;;;3.80;1.10;;;22.50;58.00;;;;;;5089134;28;20403;-79
2021/04/15 05:31:27;;;;;;;6.65;1.10;;;22.50;58.10;;;;;;5070967;28;20865;-78
2021/04/15 05:33:57;;;;;;;4.68;0.77;;;22.40;57.20;;;;;;5084574;28;20380;-79
2021/04/15 05:36:36;;;;;;;8.00;0.90;;;22.40;58.40;;;;;;5089192;28;20830;-79
2021/04/15 05:39:09;;;;;;;5.47;0.90;;;22.40;58.20;;;;;;5086471;28;20372;-79
2021/04/15 05:41:48;;;;;;;3.28;0.98;;;22.40;57.70;;;;;;5089142;28;20373;-79
2021/04/15 05:44:40;;;;;;;2.47;0.75;;;22.50;58.10;;;;;;5088460;28;20395;-79
2021/04/15 05:47:22;;;;;;;4.75;0.90;;;22.60;59.70;;;;;;5082993;28;20515;-78
2021/04/15 05:50:01;;;;;;;3.42;0.95;;;22.70;60.20;;;;;;5088237;28;20392;-78
2021/04/15 05:52:46;;;;;;;4.82;0.90;;;22.70;59.00;;;;;;5095523;28;20736;-78
2021/04/15 05:55:15;;;;;;;8.63;0.90;;;22.60;59.00;;;;;;5108745;28;20482;-79
2021/04/15 05:57:48;;;;;;;2.55;0.85;;;22.60;58.10;;;;;;5091547;28;20469;-79
2021/04/15 06:00:25;;;;;;;7.00;1.30;;;22.50;60.00;;;;;;5096320;28;20416;-79
2021/04/15 06:03:18;;;;;;;7.43;1.10;;;22.40;61.10;;;;;;5087298;28;20392;-78
2021/04/15 06:06:01;;;;;;;4.90;1.10;;;22.20;59.50;;;;;;5067076;28;20390;-79
2021/04/15 06:08:32;;;;;;;5.28;0.90;;;22.00;60.20;;;;;;5086552;28;20785;-79
2021/04/15 06:11:37;;;;;;;10.05;1.30;;;21.90;60.70;;;;;;5085273;28;20400;-79
2021/04/15 06:14:42;;;;;;;6.33;1.17;;;21.90;61.60;;;;;;5081252;28;20397;-79
2021/04/15 06:17:20;;;;;;;5.72;1.02;;;21.90;62.00;;;;;;5086770;28;20494;-79
2021/04/15 06:20:06;;;;;;;5.40;1.00;;;21.90;62.30;;;;;;5086237;28;20376;-79
2021/04/15 06:22:38;;;;;;;6.85;1.10;;;21.90;63.40;;;;;;5082030;28;20397;-79
2021/04/15 06:25:16;;;;;;;6.07;1.35;;;21.90;62.80;;;;;;5084215;28;20427;-79
2021/04/15 06:27:44;;;;;;;2.67;1.10;;;22.00;65.50;;;;;;5073895;28;20488;-79
2021/04/15 06:30:25;;;;;;;4.83;1.23;;;21.90;64.80;;;;;;5078248;28;20395;-79
2021/04/15 06:32:58;;;;;;;2.80;0.83;;;21.90;61.80;;;;;;5081543;28;20384;-79
2021/04/15 06:35:29;;;;;;;5.80;1.00;;;21.90;62.10;;;;;;5085457;28;20447;-79
2021/04/15 06:38:02;;;;;;;5.03;0.98;;;21.80;62.50;;;;;;5084302;28;20390;-79
2021/04/15 06:40:57;;;;;;;4.72;0.98;;;21.70;63.60;;;;;;5083058;28;22025;-79
2021/04/15 06:43:24;;;;;;;5.10;1.10;;;21.50;62.30;;;;;;5087575;28;20476;-79
2021/04/15 06:46:12;;;;;;;7.93;1.60;;;21.40;65.70;;;;;;5085379;28;20796;-79
2021/04/15 06:49:08;;;;;;;5.68;1.23;;;21.30;64.70;;;;;;5086039;28;20893;-79
2021/04/15 06:52:00;;;;;;;5.65;1.00;;;21.20;64.60;;;;;;5084091;28;20762;-79
2021/04/15 06:54:46;;;;;;;4.72;1.10;;;21.20;64.50;;;;;;5089414;28;20383;-80
2021/04/15 06:57:19;;;;;;;4.53;1.20;;;21.10;64.80;;;;;;5091789;28;20380;-79
2021/04/15 07:00:06;;;;;;;5.15;1.10;;;21.10;65.30;;;;;;5090724;28;20383;-79
2021/04/15 07:03:09;;;;;;;8.23;1.33;;;21.10;66.90;;;;;;5089979;28;20388;-79
2021/04/15 07:06:00;;;;;;;6.25;0.88;;;20.90;70.40;;;;;;5090850;28;20451;-80
2021/04/15 07:09:15;;;;;;;5.15;1.30;;;20.80;71.40;;;;;;5089976;28;20408;-79
2021/04/15 07:12:12;;;;;;;5.97;1.40;;;20.60;69.40;;;;;;5032313;28;20403;-79
2021/04/15 07:15:08;;;;;;;6.70;1.63;;;20.40;70.00;;;;;;5089585;28;20393;-78
2021/04/15 07:17:41;;;;;;;6.85;1.42;;;20.20;72.20;;;;;;5091143;28;20743;-79
2021/04/15 07:20:53;;;;;;;10.83;1.57;;;20.10;71.50;;;;;;5079884;28;20950;-79
2021/04/15 07:23:30;;;;;;;4.78;1.50;;;19.90;70.40;;;;;;5079686;28;20732;-78
2021/04/15 07:26:30;;;;;;;6.00;1.23;;;19.80;70.90;;;;;;5086029;28;20420;-78
2021/04/15 07:29:26;;;;;;;7.57;1.50;;;19.80;70.40;;;;;;5072053;28;20390;-79
2021/04/15 07:32:14;;;;;;;4.25;1.20;;;19.80;69.50;;;;;;5080877;28;20395;-80
2021/04/15 07:34:56;;;;;;;5.17;1.30;;;19.70;71.00;;;;;;5090948;28;20384;-80
2021/04/15 07:37:59;;;;;;;4.85;1.25;;;19.60;71.40;;;;;;5091348;28;20391;-80
2021/04/15 07:40:48;;;;;;;7.28;1.80;;;19.60;72.90;;;;;;5088402;28;20408;-80
2021/04/15 07:43:53;;;;;;;5.88;1.83;;;19.50;71.60;;;;;;5090525;28;20463;-80
2021/04/15 07:46:58;;;;;;;8.00;1.30;;;19.40;70.80;;;;;;5089335;28;20384;-80
2021/04/15 07:49:51;;;;;;;6.00;1.30;;;19.40;70.30;;;;;;5089446;28;20416;-80
2021/04/15 07:52:30;;;;;;;7.25;1.75;;;19.40;70.40;;;;;;5089163;28;20393;-80
2021/04/15 07:55:34;;;;;;;5.18;1.63;;;19.40;71.60;;;;;;5111689;28;20371;-79
2021/04/15 07:58:25;;;;;;;4.57;1.80;;;19.40;71.60;;;;;;5100678;28;20404;-80
2021/04/15 08:00:58;;;;;;;7.95;2.05;;;19.30;72.50;;;;;;5091137;28;20384;-80
2021/04/15 08:03:43;;;;;;;8.77;2.00;;;19.20;73.60;;;;;;5090773;28;20862;-80
2021/04/15 08:06:31;;;;;;;8.02;1.80;;;19.20;74.30;;;;;;5092342;28;20392;-81
2021/04/15 08:09:22;;;;;;;8.02;1.73;;;19.10;76.70;;;;;;5090931;28;20450;-80
2021/04/15 08:11:55;;;;;;;6.70;1.98;;;19.00;76.80;;;;;;5092196;28;20372;-80
2021/04/15 08:14:42;;;;;;;6.50;2.20;;;18.90;77.50;;;;;;5092653;28;20784;-80
2021/04/15 08:17:14;;;;;;;8.63;2.28;;;18.80;80.00;;;;;;5091368;28;20408;-80
2021/04/15 08:19:47;;;;;;;8.57;2.30;;;18.70;79.80;;;;;;5091826;28;20381;-79
2021/04/15 08:22:55;;;;;;;6.40;2.03;;;18.70;82.00;;;;;;5092559;28;20457;-80
2021/04/15 08:25:45;;;;;;;9.30;2.13;;;18.50;82.80;;;;;;5059304;28;20923;-79
2021/04/15 08:28:34;;;;;;;13.33;5.97;;;18.50;83.70;;;;;;5083896;28;20588;-78
2021/04/15 08:31:22;;;;;;;10.75;4.65;;;18.40;83.00;;;;;;5088607;28;20788;-79
2021/04/15 08:33:56;;;;;;;7.07;2.20;;;18.30;84.90;;;;;;5077873;28;20931;-79
2021/04/15 08:36:36;;;;;;;10.02;2.58;;;18.30;86.40;;;;;;5086425;28;20842;-79
2021/04/15 08:39:21;;;;;;;5.87;2.03;;;18.20;86.10;;;;;;5084150;28;20890;-80
2021/04/15 08:42:22;;;;;;;8.05;2.30;;;18.30;88.00;;;;;;5079532;28;20403;-79
2021/04/15 08:45:23;;;;;;;6.60;2.08;;;18.20;88.20;;;;;;5090517;28;20471;-79
2021/04/15 08:48:13;;;;;;;7.82;2.30;;;18.20;87.40;;;;;;5072454;28;20381;-79
2021/04/15 08:50:54;;;;;;;14.57;8.18;;;18.20;87.20;;;;;;5087602;28;20408;-79
2021/04/15 08:53:42;;;;;;;28.33;13.05;;;18.10;87.50;;;;;;5085587;28;20372;-79
2021/04/15 08:56:30;;;;;;;17.80;6.07;;;18.00;89.80;;;;;;5086598;28;20404;-79
2021/04/15 08:59:15;;;;;;;14.05;5.95;;;17.90;90.60;;;;;;5088107;28;20403;-79
2021/04/15 09:01:48;;;;;;;8.07;4.22;;;17.90;91.50;;;;;;5087374;28;20392;-80
2021/04/15 09:04:21;;;;;;;10.80;4.10;;;17.80;92.30;;;;;;5083019;28;20410;-79
2021/04/15 09:07:03;;;;;;;9.48;3.33;;;17.80;92.30;;;;;;5081210;28;20496;-80
2021/04/15 09:09:55;;;;;;;10.55;3.53;;;17.70;91.90;;;;;;5078647;28;20947;-80
2021/04/15 09:13:10;;;;;;;11.40;3.17;;;17.70;92.60;;;;;;5083241;28;20727;-80
2021/04/15 09:15:43;;;;;;;9.18;2.67;;;17.60;92.60;;;;;;5063226;28;20449;-80
2021/04/15 09:18:12;;;;;;;9.98;2.83;;;17.50;92.70;;;;;;5084430;28;20392;-79
2021/04/15 09:21:04;;;;;;;5.32;2.30;;;17.50;92.50;;;;;;5079644;28;20371;-79
2021/04/15 09:23:37;;;;;;;11.93;3.20;;;17.50;92.50;;;;;;5089506;28;20396;-79
2021/04/15 09:26:25;;;;;;;6.67;2.20;;;17.50;92.40;;;;;;5089641;28;20477;-79
2021/04/15 09:29:23;;;;;;;6.05;2.17;;;17.50;93.30;;;;;;5082276;28;20415;-79
2021/04/15 09:32:08;;;;;;;7.22;2.55;;;17.50;92.70;;;;;;5083961;28;20469;-79
2021/04/15 09:34:43;;;;;;;10.00;2.42;;;17.40;92.80;;;;;;5085319;28;20392;-79
2021/04/15 09:37:16;;;;;;;8.73;1.90;;;17.30;92.90;;;;;;5088151;28;20411;-79
2021/04/15 09:39:57;;;;;;;9.90;2.17;;;17.30;92.70;;;;;;5078834;28;20918;-79
2021/04/15 09:42:58;;;;;;;7.45;1.70;;;17.30;94.00;;;;;;5074576;28;20420;-79
2021/04/15 09:45:37;;;;;;;5.53;1.73;;;17.30;92.90;;;;;;5079313;28;20408;-79
2021/04/15 09:48:24;;;;;;;6.82;1.90;;;17.30;91.80;;;;;;5080330;28;20532;-79
2021/04/15 09:50:51;;;;;;;4.65;1.60;;;17.30;91.30;;;;;;5082279;28;20424;-79
2021/04/15 09:53:30;;;;;;;10.90;1.90;;;17.40;90.70;;;;;;5080346;28;20392;-79
2021/04/15 09:56:13;;;;;;;6.78;1.83;;;17.40;90.80;;;;;;5086007;28;20485;-80
2021/04/15 09:58:55;;;;;;;4.53;1.80;;;17.40;90.50;;;;;;5083871;28;20801;-79
2021/04/15 10:01:27;;;;;;;11.23;2.03;;;17.50;90.90;;;;;;5078432;28;20744;-79
2021/04/15 10:04:00;;;;;;;5.82;1.98;;;17.60;90.70;;;;;;5079961;28;20520;-79
2021/04/15 10:06:31;;;;;;;8.52;2.13;;;17.60;90.20;;;;;;5080374;28;20500;-79
2021/04/15 10:08:58;;;;;;;6.30;1.67;;;17.60;90.70;;;;;;5071774;28;20413;-79
2021/04/15 10:12:05;;;;;;;7.30;2.10;;;17.60;90.20;;;;;;5074548;28;20411;-79
2021/04/15 10:14:44;;;;;;;6.65;1.67;;;17.60;90.50;;;;;;5054152;28;20399;-80
2021/04/15 10:17:14;;;;;;;6.00;1.67;;;17.50;90.40;;;;;;5088780;28;20396;-79
2021/04/15 10:19:59;;;;;;;11.70;2.30;;;17.50;91.20;;;;;;5084282;28;20945;-79
2021/04/15 10:23:05;;;;;;;5.20;1.75;;;17.50;91.00;;;;;;5070021;28;20439;-79
2021/04/15 10:25:51;;;;;;;7.85;2.10;;;17.50;91.40;;;;;;5090231;28;20380;-78
2021/04/15 10:28:34;;;;;;;5.55;1.92;;;17.40;90.70;;;;;;5087785;28;20391;-79
2021/04/15 10:31:19;;;;;;;4.97;1.90;;;17.40;91.60;;;;;;5092177;28;20882;-79
2021/04/15 10:34:17;;;;;;;8.90;2.10;;;17.40;92.20;;;;;;5092886;28;20376;-78
2021/04/15 10:36:52;;;;;;;9.63;1.80;;;17.30;91.40;;;;;;5083376;28;20404;-78
2021/04/15 10:40:04;;;;;;;6.38;1.70;;;17.30;91.30;;;;;;5092225;28;20827;-79
2021/04/15 10:42:49;;;;;;;4.93;1.70;;;17.40;90.60;;;;;;5081597;28;20962;-79
2021/04/15 10:45:45;;;;;;;10.00;1.77;;;17.40;90.20;;;;;;5092916;28;20376;-79
2021/04/15 10:48:26;;;;;;;9.23;1.63;;;17.40;90.20;;;;;;5087253;28;20486;-79
2021/04/15 10:51:12;;;;;;;8.60;1.67;;;17.40;90.20;;;;;;5088678;28;20420;-78
2021/04/15 10:53:58;;;;;;;6.03;1.80;;;17.30;89.50;;;;;;5079753;28;20833;-78
2021/04/15 10:56:25;;;;;;;6.45;1.67;;;17.30;90.30;;;;;;5085977;28;20495;-79
2021/04/15 10:59:08;;;;;;;7.35;1.60;;;17.30;89.90;;;;;;5084249;28;20396;-79
2021/04/15 11:01:44;;;;;;;6.00;1.70;;;17.30;90.10;;;;;;5081601;28;20905;-79
2021/04/15 11:04:14;;;;;;;6.47;1.53;;;17.20;89.30;;;;;;5075105;28;20603;-79
2021/04/15 11:06:50;;;;;;;5.20;1.33;;;17.20;90.20;;;;;;5088362;28;20384;-80
2021/04/15 11:09:31;;;;;;;4.90;1.38;;;17.20;89.30;;;;;;5085445;28;20427;-80
2021/04/15 11:12:16;;;;;;;7.27;1.70;;;17.20;88.70;;;;;;5087406;28;20474;-79
2021/04/15 11:14:52;;;;;;;7.28;1.40;;;17.20;90.40;;;;;;5088947;28;20414;-80
2021/04/15 11:17:35;;;;;;;7.20;1.40;;;17.20;90.10;;;;;;5091591;28;20392;-79
2021/04/15 11:20:21;;;;;;;12.60;1.98;;;17.10;90.00;;;;;;5086199;28;20446;-79
2021/04/15 11:23:02;;;;;;;6.70;1.83;;;17.10;90.70;;;;;;5086938;28;20384;-80
2021/04/15 11:25:46;;;;;;;5.55;1.60;;;17.00;90.70;;;;;;5086177;28;20867;-80
2021/04/15 11:28:36;;;;;;;7.85;1.52;;;17.00;91.30;;;;;;5075932;28;20995;-79
2021/04/15 11:31:12;;;;;;;7.37;1.60;;;17.00;90.80;;;;;;5086706;28;20383;-80
2021/04/15 11:33:47;;;;;;;6.45;1.50;;;16.90;90.40;;;;;;5089164;28;20385;-80
2021/04/15 11:36:19;;;;;;;9.38;2.20;;;16.90;90.10;;;;;;5077656;28;20410;-80
2021/04/15 11:38:49;;;;;;;7.70;2.08;;;17.00;90.10;;;;;;5079069;28;20388;-79
2021/04/15 11:41:30;;;;;;;7.53;1.57;;;17.00;88.90;;;;;;5086282;28;20581;-79
2021/04/15 11:44:23;;;;;;;7.07;1.63;;;17.00;88.80;;;;;;5083179;28;20387;-79
2021/04/15 11:47:09;;;;;;;9.53;1.90;;;17.00;89.00;;;;;;5088791;28;20372;-79
2021/04/15 11:49:43;;;;;;;6.30;2.10;;;17.00;89.60;;;;;;5074663;28;20398;-79
2021/04/15 11:52:13;;;;;;;8.15;2.20;;;17.00;89.50;;;;;;5079094;28;20384;-79
2021/04/15 11:54:44;;;;;;;8.00;2.00;;;17.00;89.30;;;;;;5084735;28;20402;-78
2021/04/15 11:57:20;;;;;;;6.63;1.80;;;17.00;89.60;;;;;;5078356;28;20988;-78
2021/04/15 12:00:02;;;;;;;10.65;1.92;;;16.90;90.20;;;;;;5085427;28;20420;-79
2021/04/15 12:02:34;;;;;;;9.95;2.10;;;16.90;89.30;;;;;;5075296;28;20431;-79
2021/04/15 12:05:16;;;;;;;6.43;2.08;;;16.90;88.90;;;;;;5088240;28;20399;-79
2021/04/15 12:08:26;;;;;;;10.00;2.10;;;16.90;89.60;;;;;;5074195;28;20873;-79
2021/04/15 12:11:08;;;;;;;5.00;2.03;;;16.90;88.10;;;;;;5058194;28;20792;-79
2021/04/15 12:13:53;;;;;;;10.27;2.58;;;16.90;87.20;;;;;;5083112;28;20417;-79
2021/04/15 12:16:45;;;;;;;8.90;2.30;;;17.00;86.70;;;;;;5087837;28;20416;-79
2021/04/15 12:19:41;;;;;;;6.18;2.20;;;17.00;86.10;;;;;;5080739;28;20440;-79
2021/04/15 12:22:08;;;;;;;7.63;2.47;;;17.00;86.30;;;;;;5080103;28;20396;-79
2021/04/15 12:24:48;;;;;;;8.13;2.35;;;17.00;86.00;;;;;;5092866;28;20406;-79
2021/04/15 12:27:24;;;;;;;9.18;2.20;;;16.90;87.70;;;;;;5104178;28;20453;-79
2021/04/15 12:30:15;;;;;;;8.27;2.40;;;17.00;87.10;;;;;;5090123;28;20445;-79
2021/04/15 12:32:59;;;;;;;10.73;2.83;;;16.90;87.40;;;;;;5090709;28;20385;-80
2021/04/15 12:35:26;;;;;;;8.57;2.40;;;16.90;86.80;;;;;;5073070;28;20392;-79
2021/04/15 12:38:08;;;;;;;9.93;2.50;;;16.90;85.10;;;;;;5088764;28;20426;-79
2021/04/15 12:40:41;;;;;;;7.23;2.53;;;16.90;84.60;;;;;;5083951;28;20390;-79
2021/04/15 12:43:14;;;;;;;7.83;2.47;;;17.00;84.00;;;;;;5080704;28;20395;-79
2021/04/15 12:45:53;;;;;;;8.52;2.40;;;17.00;83.30;;;;;;5077372;28;20420;-80
2021/04/15 12:48:48;;;;;;;10.73;2.58;;;17.00;84.30;;;;;;5082128;28;20749;-79
2021/04/15 12:51:41;;;;;;;6.57;2.70;;;17.00;84.80;;;;;;5085473;28;20394;-79
2021/04/15 12:54:14;;;;;;;8.13;2.70;;;17.00;85.10;;;;;;5089795;28;20381;-79
2021/04/15 12:56:48;;;;;;;12.15;2.55;;;16.90;84.00;;;;;;5089668;28;20415;-79
2021/04/15 12:59:33;;;;;;;7.72;2.65;;;17.00;82.60;;;;;;5088872;28;20462;-80
2021/04/15 13:02:02;;;;;;;11.87;3.27;;;17.00;83.00;;;;;;5089278;28;20475;-79
2021/04/15 13:04:32;;;;;;;8.43;3.00;;;17.10;82.00;;;;;;5089659;28;20379;-79
2021/04/15 13:07:02;;;;;;;6.88;2.80;;;17.10;82.20;;;;;;5074195;28;20397;-79
2021/04/15 13:09:32;;;;;;;7.75;2.38;;;17.00;83.70;;;;;;5078023;28;20420;-80
2021/04/15 13:12:00;;;;;;;8.77;2.70;;;17.00;82.90;;;;;;5084682;28;20443;-79
2021/04/15 13:14:57;;;;;;;7.65;2.65;;;17.00;82.60;;;;;;5072784;28;20362;-79
2021/04/15 13:17:36;;;;;;;5.05;2.33;;;16.90;83.10;;;;;;5066216;28;20414;-79
2021/04/15 13:20:21;;;;;;;9.48;2.92;;;16.80;83.90;;;;;;5085944;28;20906;-79
2021/04/15 13:23:09;;;;;;;8.45;2.88;;;16.80;84.00;;;;;;5082722;28;20376;-80
2021/04/15 13:25:52;;;;;;;10.53;2.97;;;16.70;85.00;;;;;;5082263;28;20397;-80
2021/04/15 13:28:24;;;;;;;9.52;3.03;;;16.70;84.40;;;;;;5071559;28;20868;-79
2021/04/15 13:30:56;;;;;;;8.00;2.70;;;16.60;85.20;;;;;;5083876;28;20900;-80
2021/04/15 13:34:05;;;;;;;10.15;2.72;;;16.60;85.10;;;;;;5085057;28;20445;-80
2021/04/15 13:36:34;;;;;;;8.82;3.05;;;16.60;85.00;;;;;;5086547;28;20404;-80
2021/04/15 13:39:09;;;;;;;7.97;2.70;;;16.50;86.00;;;;;;5085075;28;20404;-80
2021/04/15 13:41:56;;;;;;;8.33;2.83;;;16.50;85.20;;;;;;5085866;28;20402;-80
2021/04/15 13:44:58;;;;;;;8.63;2.83;;;16.50;86.30;;;;;;5074785;28;20411;-81
2021/04/15 13:47:44;;;;;;;7.57;2.78;;;16.40;86.10;;;;;;5073178;28;20872;-80
2021/04/15 13:50:40;;;;;;;6.25;2.60;;;16.40;86.00;;;;;;5079293;28;20428;-79
2021/04/15 13:53:45;;;;;;;6.93;2.92;;;16.30;86.50;;;;;;5081207;28;20392;-80
2021/04/15 13:56:12;;;;;;;10.07;3.00;;;16.30;87.30;;;;;;5083286;28;20406;-80
2021/04/15 13:58:40;;;;;;;9.43;2.95;;;16.20;86.40;;;;;;5077871;28;20388;-80